Time;durP1;ratioP1;P1;durP2;ratioP2;P2;SDS_P1;SDS_P2;PMS_P1;PMS_P2;Temp;Humidity;BMP_temperature;BMP_pressure;BME280_temperature;BME280_humidity;BME280_pressure;Samples;Min_cycle;Max_cycle;Signal;HPM_P1;HPM_P2
2022/02/22 00:01:18;;;;;;;10.77;2.20;;;5.00;99.90;;;;;;5035088;28;20037;-70
2022/02/22 00:03:44;;;;;;;8.95;3.08;;;5.10;99.90;;;;;;5047188;28;20545;-70
2022/02/22 00:06:10;;;;;;;11.70;2.25;;;5.10;99.90;;;;;;5047782;28;20085;-71
2022/02/22 00:08:35;;;;;;;19.45;3.38;;;5.10;99.90;;;;;;5047669;28;20034;-70
2022/02/22 00:11:01;;;;;;;12.55;2.17;;;5.10;99.90;;;;;;5043013;28;20049;-71
2022/02/22 00:13:27;;;;;;;8.27;1.67;;;5.10;99.90;;;;;;5028115;28;20026;-70
2022/02/22 00:15:54;;;;;;;8.30;1.63;;;5.10;99.90;;;;;;5032462;28;20083;-73
2022/02/22 00:18:21;;;;;;;18.00;2.30;;;5.10;99.90;;;;;;5043173;28;20021;-73
2022/02/22 00:20:47;;;;;;;13.25;2.58;;;5.10;99.90;;;;;;5044828;28;20030;-71
2022/02/22 00:23:13;;;;;;;18.83;2.45;;;5.00;99.90;;;;;;5027428;28;20054;-70
2022/02/22 00:25:39;;;;;;;19.00;2.22;;;5.00;99.90;;;;;;5027619;28;20053;-71
2022/02/22 00:28:05;;;;;;;8.55;1.65;;;5.00;99.90;;;;;;5027606;28;20099;-70
2022/02/22 00:30:31;;;;;;;8.70;2.05;;;5.00;99.90;;;;;;5035488;28;20033;-71
2022/02/22 00:32:57;;;;;;;10.50;1.77;;;4.90;99.90;;;;;;5047053;28;20029;-71
2022/02/22 00:35:23;;;;;;;12.85;2.92;;;5.00;99.90;;;;;;5047656;28;20029;-72
2022/02/22 00:37:50;;;;;;;8.68;1.63;;;4.90;99.90;;;;;;5039945;28;20029;-73
2022/02/22 00:40:16;;;;;;;10.98;3.00;;;4.90;99.90;;;;;;5037310;28;20025;-72
2022/02/22 00:42:42;;;;;;;18.50;3.03;;;4.90;99.90;;;;;;5045166;28;20030;-72
2022/02/22 00:45:10;;;;;;;11.98;2.40;;;4.90;99.90;;;;;;5047055;28;20049;-72
2022/02/22 00:47:36;;;;;;;41.38;4.05;;;5.00;99.90;;;;;;5039182;28;20038;-71
2022/02/22 00:50:07;;;;;;;12.40;3.20;;;4.90;99.90;;;;;;5028413;28;20041;-70
2022/02/22 00:52:33;;;;;;;6.90;2.05;;;4.90;99.90;;;;;;5046838;28;20021;-72
2022/02/22 00:54:58;;;;;;;30.23;3.80;;;4.90;99.90;;;;;;5047180;28;20052;-73
2022/02/22 00:57:24;;;;;;;13.50;2.72;;;4.80;99.90;;;;;;5047365;28;20160;-72
2022/02/22 00:59:49;;;;;;;14.52;4.03;;;4.90;99.90;;;;;;5046993;28;20030;-72
2022/02/22 01:02:15;;;;;;;8.10;3.20;;;4.80;99.90;;;;;;5030654;28;20065;-70
2022/02/22 01:04:41;;;;;;;22.48;2.90;;;4.80;99.90;;;;;;5027153;28;20030;-71
2022/02/22 01:07:06;;;;;;;13.18;2.50;;;4.90;99.90;;;;;;5026655;28;20030;-72
2022/02/22 01:09:32;;;;;;;19.00;2.45;;;4.90;99.90;;;;;;5026963;28;20473;-71
2022/02/22 01:11:58;;;;;;;16.60;3.30;;;4.90;99.90;;;;;;5026950;28;20022;-70
2022/02/22 01:14:24;;;;;;;21.02;2.22;;;4.90;99.90;;;;;;5026590;28;20068;-69
2022/02/22 01:16:49;;;;;;;16.40;3.13;;;4.90;99.90;;;;;;5027165;28;20045;-73
2022/02/22 01:19:15;;;;;;;24.48;3.13;;;4.80;99.90;;;;;;5026865;28;20030;-70
2022/02/22 01:21:40;;;;;;;29.63;2.25;;;4.80;99.90;;;;;;5026298;28;20030;-69
2022/02/22 01:24:08;;;;;;;11.23;3.97;;;4.90;99.90;;;;;;5026691;28;20038;-73
2022/02/22 01:26:34;;;;;;;15.02;3.50;;;4.80;99.90;;;;;;5026501;28;20053;-73
2022/02/22 01:29:00;;;;;;;8.38;2.60;;;4.90;99.90;;;;;;5026247;28;20041;-71
2022/02/22 01:31:26;;;;;;;15.80;1.92;;;4.80;99.90;;;;;;5026455;28;20025;-73
2022/02/22 01:33:57;;;;;;;13.73;2.15;;;5.00;99.90;;;;;;5026820;28;20081;-72
2022/02/22 01:36:23;;;;;;;14.02;3.67;;;4.80;99.90;;;;;;5026501;28;20022;-72
2022/02/22 01:38:51;;;;;;;11.43;2.15;;;4.90;99.90;;;;;;5025378;28;20355;-72
2022/02/22 01:41:18;;;;;;;10.10;1.75;;;4.90;99.90;;;;;;5024835;28;20069;-70
2022/02/22 01:43:44;;;;;;;12.35;3.28;;;4.80;99.90;;;;;;5026250;28;20018;-70
2022/02/22 01:46:11;;;;;;;7.32;2.90;;;4.80;99.90;;;;;;5026358;28;20038;-71
2022/02/22 01:48:37;;;;;;;7.90;2.00;;;4.80;99.90;;;;;;5025777;28;20045;-68
2022/02/22 01:51:03;;;;;;;12.07;2.67;;;4.80;99.90;;;;;;5026522;28;20108;-72
2022/02/22 01:53:29;;;;;;;23.27;2.97;;;4.90;99.90;;;;;;5024771;28;20052;-70
2022/02/22 01:55:54;;;;;;;7.47;2.28;;;4.80;99.90;;;;;;5025818;28;20026;-72
2022/02/22 01:58:20;;;;;;;13.93;3.38;;;4.80;99.90;;;;;;5026348;28;20026;-71
2022/02/22 02:00:46;;;;;;;21.88;3.22;;;4.80;99.90;;;;;;5026398;28;20022;-71
2022/02/22 02:03:18;;;;;;;13.88;2.17;;;4.70;99.90;;;;;;5025989;28;20044;-68
2022/02/22 02:05:45;;;;;;;12.82;2.97;;;4.70;99.90;;;;;;5026241;28;20115;-72
2022/02/22 02:08:11;;;;;;;12.88;2.35;;;4.70;99.90;;;;;;5025548;28;20030;-71
2022/02/22 02:10:37;;;;;;;8.52;1.20;;;4.70;99.90;;;;;;5025664;28;20044;-70
2022/02/22 02:13:03;;;;;;;15.07;2.75;;;4.60;99.90;;;;;;5026025;28;20026;-70
2022/02/22 02:15:29;;;;;;;19.08;3.03;;;4.60;99.90;;;;;;5025525;28;20026;-71
2022/02/22 02:17:54;;;;;;;23.77;3.15;;;4.70;99.90;;;;;;5025725;28;20029;-72
2022/02/22 02:20:20;;;;;;;6.80;1.83;;;4.70;99.90;;;;;;5025413;28;20029;-70
2022/02/22 02:22:45;;;;;;;20.27;2.65;;;4.70;99.90;;;;;;5024859;28;20026;-72
2022/02/22 02:25:12;;;;;;;25.38;3.10;;;4.70;99.90;;;;;;5024850;28;20057;-71
2022/02/22 02:27:38;;;;;;;19.50;3.83;;;4.60;99.90;;;;;;5025566;28;20061;-71
2022/02/22 02:30:06;;;;;;;10.15;2.58;;;4.60;99.90;;;;;;5023584;28;20041;-72
2022/02/22 02:32:32;;;;;;;22.52;2.80;;;4.50;99.90;;;;;;5029352;28;20032;-71
2022/02/22 02:34:58;;;;;;;15.10;2.58;;;4.50;99.90;;;;;;5025494;28;20093;-71
2022/02/22 02:37:24;;;;;;;10.60;2.75;;;4.50;99.90;;;;;;5025239;28;20106;-72
2022/02/22 02:39:51;;;;;;;9.50;2.45;;;4.50;99.90;;;;;;5032012;28;20033;-70
2022/02/22 02:42:18;;;;;;;16.10;2.65;;;4.50;99.90;;;;;;5025005;28;20061;-72
2022/02/22 02:44:45;;;;;;;16.80;3.38;;;4.50;99.90;;;;;;5040843;28;20022;-70
2022/02/22 02:47:11;;;;;;;19.63;3.22;;;4.50;99.90;;;;;;5044998;28;20115;-71
2022/02/22 02:49:44;;;;;;;7.18;1.92;;;4.40;99.90;;;;;;5043192;28;20048;-71
2022/02/22 02:52:10;;;;;;;18.48;1.77;;;4.40;99.90;;;;;;5031215;28;20074;-71
2022/02/22 02:54:37;;;;;;;9.95;2.88;;;4.40;99.90;;;;;;5025255;28;20034;-70
2022/02/22 02:57:03;;;;;;;13.98;2.78;;;4.40;99.90;;;;;;5024990;28;20018;-69
2022/02/22 02:59:29;;;;;;;7.72;1.83;;;4.40;99.90;;;;;;5030803;28;20025;-71
2022/02/22 03:01:54;;;;;;;21.77;2.75;;;4.50;99.90;;;;;;5044884;28;20030;-69
2022/02/22 03:04:20;;;;;;;10.73;1.90;;;4.40;99.90;;;;;;5044609;28;20835;-70
2022/02/22 03:06:46;;;;;;;4.30;1.95;;;4.40;99.90;;;;;;5044677;28;20053;-69
2022/02/22 03:09:12;;;;;;;7.45;0.80;;;4.40;99.90;;;;;;5044694;28;20051;-71
2022/02/22 03:11:38;;;;;;;9.60;2.10;;;4.30;99.90;;;;;;5044297;28;20028;-72
2022/02/22 03:14:05;;;;;;;10.98;2.78;;;4.30;99.90;;;;;;5044701;28;20028;-70
2022/02/22 03:16:31;;;;;;;10.63;2.00;;;4.30;99.90;;;;;;5044557;28;20029;-71
2022/02/22 03:18:57;;;;;;;19.05;2.22;;;4.30;99.90;;;;;;5044106;28;20060;-69
2022/02/22 03:21:23;;;;;;;17.50;2.60;;;4.20;99.90;;;;;;5031813;28;20030;-74
2022/02/22 03:23:49;;;;;;;5.57;2.55;;;4.20;99.90;;;;;;5024944;28;20030;-72
2022/02/22 03:26:14;;;;;;;23.40;4.53;;;4.20;99.90;;;;;;5024126;28;20064;-70
2022/02/22 03:28:40;;;;;;;15.07;2.15;;;4.20;99.90;;;;;;5024581;28;20037;-70
2022/02/22 03:31:06;;;;;;;12.63;2.60;;;4.20;99.90;;;;;;5024566;28;20494;-70
2022/02/22 03:33:33;;;;;;;22.27;3.08;;;4.20;99.90;;;;;;5024050;28;20041;-70
2022/02/22 03:35:59;;;;;;;11.63;2.83;;;4.20;99.90;;;;;;5024635;28;20029;-71
2022/02/22 03:38:25;;;;;;;7.30;2.03;;;4.20;99.90;;;;;;5028181;28;20034;-71
2022/02/22 03:40:51;;;;;;;14.63;2.15;;;4.30;99.90;;;;;;5028586;28;20081;-72
2022/02/22 03:43:17;;;;;;;23.55;3.63;;;4.30;99.90;;;;;;5028837;28;20034;-70
2022/02/22 03:45:43;;;;;;;17.23;2.42;;;4.30;99.90;;;;;;5028542;28;20037;-69
2022/02/22 03:48:08;;;;;;;21.48;2.80;;;4.30;99.90;;;;;;5028013;28;20026;-70
2022/02/22 03:50:34;;;;;;;21.52;3.13;;;4.30;99.90;;;;;;5028581;28;20530;-69
2022/02/22 03:53:00;;;;;;;33.63;3.13;;;4.30;99.90;;;;;;5028234;28;20057;-71
2022/02/22 03:55:25;;;;;;;28.85;4.18;;;4.30;99.90;;;;;;5028201;28;20056;-69
2022/02/22 03:57:52;;;;;;;29.90;3.40;;;4.30;99.90;;;;;;5028652;28;20061;-71
2022/02/22 04:00:25;;;;;;;22.52;2.75;;;4.20;99.90;;;;;;5028187;28;20033;-69
2022/02/22 04:02:51;;;;;;;11.65;2.90;;;4.20;99.90;;;;;;5028291;28;20049;-71
2022/02/22 04:05:20;;;;;;;23.23;3.22;;;4.20;99.90;;;;;;5028577;28;20041;-70
2022/02/22 04:07:47;;;;;;;10.70;2.40;;;4.20;99.90;;;;;;5028593;28;20367;-69
2022/02/22 04:10:13;;;;;;;18.92;1.85;;;4.20;99.90;;;;;;5028191;28;20038;-71
2022/02/22 04:12:39;;;;;;;26.60;4.35;;;4.20;99.90;;;;;;5028261;28;20049;-71
2022/02/22 04:15:07;;;;;;;10.75;2.42;;;4.10;99.90;;;;;;5027897;28;20433;-69
2022/02/22 04:17:33;;;;;;;17.42;2.45;;;4.10;99.90;;;;;;5027841;28;20113;-71
2022/02/22 04:19:59;;;;;;;18.75;2.35;;;4.10;99.90;;;;;;5026473;28;20030;-70
2022/02/22 04:22:25;;;;;;;8.30;2.83;;;4.10;99.90;;;;;;5030784;28;20036;-69
2022/02/22 04:24:51;;;;;;;13.70;3.58;;;4.10;99.90;;;;;;5027975;28;20034;-71
2022/02/22 04:27:17;;;;;;;14.65;2.65;;;4.20;99.90;;;;;;5030470;28;20045;-68
2022/02/22 04:29:43;;;;;;;12.18;2.50;;;4.10;99.90;;;;;;5046961;28;20065;-70
2022/02/22 04:32:08;;;;;;;6.03;1.95;;;4.10;99.90;;;;;;5047215;28;20042;-71
2022/02/22 04:34:34;;;;;;;13.60;3.17;;;4.10;99.90;;;;;;5047739;28;20040;-70
2022/02/22 04:37:00;;;;;;;24.45;2.85;;;4.10;99.90;;;;;;5047118;28;20025;-71
2022/02/22 04:39:25;;;;;;;9.77;3.08;;;4.00;99.90;;;;;;5047434;28;20032;-69
2022/02/22 04:41:52;;;;;;;28.50;3.30;;;4.00;99.90;;;;;;5031505;28;20050;-70
2022/02/22 04:44:19;;;;;;;18.92;3.08;;;4.00;99.90;;;;;;5027164;28;20030;-71
2022/02/22 04:46:46;;;;;;;10.18;2.78;;;4.00;99.90;;;;;;5026069;28;20101;-68
2022/02/22 04:49:12;;;;;;;12.45;2.17;;;4.00;99.90;;;;;;5026915;28;20030;-71
2022/02/22 04:51:39;;;;;;;15.35;3.22;;;4.10;99.90;;;;;;5026899;28;20484;-68
2022/02/22 04:54:05;;;;;;;13.25;2.58;;;4.00;99.90;;;;;;5027311;28;20057;-70
2022/02/22 04:56:31;;;;;;;4.25;1.65;;;4.00;99.90;;;;;;5027242;28;20026;-70
2022/02/22 04:58:57;;;;;;;13.10;2.67;;;4.00;99.90;;;;;;5026979;28;20484;-69
2022/02/22 05:01:23;;;;;;;8.77;3.17;;;4.00;99.90;;;;;;5027457;28;20046;-70
2022/02/22 05:03:48;;;;;;;8.98;2.17;;;3.90;99.90;;;;;;5027029;28;20030;-69
2022/02/22 05:06:14;;;;;;;13.77;1.55;;;3.90;99.90;;;;;;5026804;28;20034;-70
2022/02/22 05:08:40;;;;;;;13.68;2.20;;;3.90;99.90;;;;;;5027080;28;20141;-70
2022/02/22 05:11:06;;;;;;;13.43;2.88;;;3.90;99.90;;;;;;5026866;28;20022;-71
2022/02/22 05:13:32;;;;;;;11.30;3.15;;;3.90;99.90;;;;;;5026724;28;20045;-69
2022/02/22 05:15:58;;;;;;;11.35;2.28;;;3.90;99.90;;;;;;5027188;28;20030;-70
2022/02/22 05:18:24;;;;;;;13.68;2.08;;;3.80;99.90;;;;;;5026773;28;20060;-69
2022/02/22 05:20:56;;;;;;;15.27;2.67;;;3.80;99.90;;;;;;5026984;28;20081;-69
2022/02/22 05:23:35;;;;;;;19.50;2.47;;;3.70;99.90;;;;;;5027114;28;20025;-71
2022/02/22 05:26:02;;;;;;;9.30;2.05;;;3.70;99.90;;;;;;5026443;28;20100;-69
2022/02/22 05:28:28;;;;;;;12.63;1.73;;;3.70;99.90;;;;;;5025351;28;20038;-73
2022/02/22 05:30:55;;;;;;;11.73;1.73;;;3.70;99.90;;;;;;5026728;28;20033;-70
2022/02/22 05:33:29;;;;;;;14.60;1.48;;;3.70;99.90;;;;;;5026352;28;20045;-70
2022/02/22 05:35:54;;;;;;;5.47;2.17;;;3.70;99.90;;;;;;5026782;28;20090;-68
2022/02/22 05:38:20;;;;;;;7.18;3.60;;;3.70;99.90;;;;;;5026736;28;20034;-70
2022/02/22 05:40:46;;;;;;;11.65;1.70;;;3.70;99.90;;;;;;5026233;28;20032;-68
2022/02/22 05:43:12;;;;;;;10.85;2.00;;;3.70;99.90;;;;;;5025156;28;20042;-70
2022/02/22 05:45:38;;;;;;;9.48;2.10;;;3.70;99.90;;;;;;5026239;28;20109;-69
2022/02/22 05:48:05;;;;;;;29.77;3.17;;;3.60;99.90;;;;;;5026094;28;20042;-69
2022/02/22 05:50:31;;;;;;;13.13;2.22;;;3.60;99.90;;;;;;5026370;28;20552;-68
2022/02/22 05:53:00;;;;;;;13.35;2.25;;;3.60;99.90;;;;;;5026374;28;20037;-68
2022/02/22 05:55:26;;;;;;;12.82;2.72;;;3.60;99.90;;;;;;5026331;28;20038;-71
2022/02/22 05:57:53;;;;;;;23.27;2.17;;;3.60;99.90;;;;;;5026491;28;20040;-70
2022/02/22 06:00:24;;;;;;;8.98;2.13;;;3.60;99.90;;;;;;5025202;28;20029;-70
2022/02/22 06:02:49;;;;;;;7.57;2.58;;;3.50;99.90;;;;;;5026257;28;20701;-69
2022/02/22 06:05:15;;;;;;;13.75;3.20;;;3.50;99.90;;;;;;5026127;28;20040;-69
2022/02/22 06:07:41;;;;;;;12.50;2.47;;;3.50;99.90;;;;;;5025831;28;20029;-69
2022/02/22 06:10:07;;;;;;;18.00;2.05;;;3.50;99.90;;;;;;5025841;28;20081;-69
2022/02/22 06:12:33;;;;;;;10.40;2.13;;;3.50;99.90;;;;;;5025981;28;20113;-70
2022/02/22 06:14:59;;;;;;;9.48;2.83;;;3.40;99.90;;;;;;5025613;28;20092;-71
2022/02/22 06:17:24;;;;;;;9.95;2.20;;;3.60;99.90;;;;;;5026049;28;20049;-69
2022/02/22 06:19:50;;;;;;;17.98;1.70;;;3.40;99.90;;;;;;5027421;28;20033;-70
2022/02/22 06:22:17;;;;;;;13.98;2.83;;;3.50;99.90;;;;;;5025552;28;20026;-69
2022/02/22 06:24:43;;;;;;;14.57;2.60;;;3.50;99.90;;;;;;5043532;28;20034;-69
2022/02/22 06:27:08;;;;;;;18.98;2.80;;;3.50;99.90;;;;;;5041226;28;20082;-68
2022/02/22 06:29:35;;;;;;;14.05;3.17;;;3.60;99.90;;;;;;5035345;28;20124;-69
2022/02/22 06:32:01;;;;;;;38.75;2.28;;;3.60;99.90;;;;;;5025143;28;20033;-70
2022/02/22 06:34:26;;;;;;;8.25;2.35;;;3.70;99.90;;;;;;5039598;28;20025;-68
2022/02/22 06:36:52;;;;;;;26.33;3.78;;;3.80;99.90;;;;;;5045350;28;20534;-68
2022/02/22 06:39:18;;;;;;;11.90;1.73;;;3.80;99.90;;;;;;5045300;28;20049;-69
2022/02/22 06:41:44;;;;;;;24.73;3.75;;;3.90;99.90;;;;;;5043426;28;20044;-67
2022/02/22 06:44:10;;;;;;;9.90;2.30;;;3.90;99.90;;;;;;5029503;28;20029;-69
2022/02/22 06:46:36;;;;;;;8.52;1.67;;;3.90;99.90;;;;;;5025248;28;20422;-69
2022/02/22 06:49:02;;;;;;;12.48;1.95;;;3.80;99.90;;;;;;5024742;28;20045;-68
2022/02/22 06:51:28;;;;;;;21.67;2.42;;;3.80;99.90;;;;;;5031101;28;20026;-70
2022/02/22 06:53:54;;;;;;;18.60;2.70;;;3.80;99.90;;;;;;5045111;28;20083;-69
2022/02/22 06:56:20;;;;;;;23.67;3.17;;;3.80;99.90;;;;;;5044386;28;20457;-70
2022/02/22 06:58:47;;;;;;;21.73;3.40;;;3.70;99.90;;;;;;5045172;28;20108;-70
2022/02/22 07:01:13;;;;;;;23.58;3.95;;;3.70;99.90;;;;;;5044508;28;20497;-70
2022/02/22 07:03:39;;;;;;;12.27;1.77;;;3.70;99.90;;;;;;5043907;28;20014;-69
2022/02/22 07:06:05;;;;;;;5.15;1.02;;;3.70;99.90;;;;;;5044838;28;20028;-68
2022/02/22 07:08:40;;;;;;;5.25;1.25;;;3.70;99.90;;;;;;5044507;28;20037;-70
2022/02/22 07:11:05;;;;;;;7.60;2.42;;;3.70;99.90;;;;;;5038752;28;20032;-69
2022/02/22 07:13:31;;;;;;;16.27;3.00;;;3.70;99.90;;;;;;5025037;28;20069;-70
2022/02/22 07:15:56;;;;;;;13.68;2.88;;;3.70;99.90;;;;;;5024753;28;20037;-70
2022/02/22 07:18:22;;;;;;;16.70;2.75;;;3.70;99.90;;;;;;5024401;28;20030;-71
2022/02/22 07:20:51;;;;;;;14.43;2.03;;;3.70;99.90;;;;;;5032213;28;20414;-71
2022/02/22 07:23:17;;;;;;;10.98;3.78;;;3.70;99.90;;;;;;5030837;28;20088;-68
2022/02/22 07:25:43;;;;;;;16.63;2.80;;;3.70;99.90;;;;;;5022008;28;20053;-72
2022/02/22 07:28:09;;;;;;;21.38;3.72;;;3.80;99.90;;;;;;5043561;28;20526;-69
2022/02/22 07:30:39;;;;;;;20.58;3.65;;;3.90;99.90;;;;;;5040999;28;20053;-71
2022/02/22 07:33:05;;;;;;;12.63;2.58;;;4.00;99.90;;;;;;5025346;28;20136;-70
2022/02/22 07:35:40;;;;;;;14.73;3.75;;;4.20;99.90;;;;;;5037364;28;20485;-69
2022/02/22 07:38:06;;;;;;;19.63;2.85;;;4.20;99.90;;;;;;5039395;28;20110;-69
2022/02/22 07:40:32;;;;;;;14.55;2.33;;;4.40;99.90;;;;;;5040734;28;20025;-70
2022/02/22 07:42:58;;;;;;;16.13;2.80;;;4.70;99.90;;;;;;5024996;28;20034;-71
2022/02/22 07:45:24;;;;;;;18.77;2.97;;;4.80;99.90;;;;;;5031227;28;20048;-71
2022/02/22 07:47:49;;;;;;;9.23;2.25;;;5.00;99.90;;;;;;5039741;28;20038;-70
2022/02/22 07:50:15;;;;;;;16.02;2.88;;;5.20;99.90;;;;;;5024868;28;20045;-70
2022/02/22 07:52:41;;;;;;;6.45;2.03;;;5.30;99.90;;;;;;5024756;28;20084;-69
2022/02/22 07:55:08;;;;;;;22.30;2.95;;;5.30;99.90;;;;;;5023945;28;20040;-71
2022/02/22 07:57:33;;;;;;;21.80;4.10;;;5.20;99.90;;;;;;5033879;28;20026;-71
2022/02/22 07:59:59;;;;;;;8.77;3.30;;;5.20;99.90;;;;;;5030617;28;20048;-70
2022/02/22 08:02:25;;;;;;;21.20;3.35;;;5.10;99.90;;;;;;5025408;28;20616;-71
2022/02/22 08:04:51;;;;;;;13.45;3.25;;;5.20;99.90;;;;;;5024228;28;20053;-69
2022/02/22 08:07:20;;;;;;;16.13;2.53;;;5.20;99.90;;;;;;5023343;28;20033;-71
2022/02/22 08:09:46;;;;;;;12.95;2.78;;;5.20;99.90;;;;;;5023690;28;20109;-69
2022/02/22 08:12:12;;;;;;;20.13;3.53;;;5.40;99.90;;;;;;5024774;28;20045;-69
2022/02/22 08:14:37;;;;;;;6.60;2.10;;;5.60;99.90;;;;;;5024386;28;20026;-70
2022/02/22 08:17:03;;;;;;;25.23;3.05;;;5.70;99.90;;;;;;5024425;28;20026;-71
2022/02/22 08:19:30;;;;;;;18.77;3.50;;;5.90;99.90;;;;;;5024693;28;20026;-70
2022/02/22 08:21:56;;;;;;;24.42;3.75;;;6.20;99.90;;;;;;5036218;28;20030;-70
2022/02/22 08:24:24;;;;;;;17.65;2.22;;;6.30;99.90;;;;;;5033129;28;20030;-71
2022/02/22 08:26:51;;;;;;;4.78;1.83;;;6.50;99.90;;;;;;5032063;28;20092;-69
2022/02/22 08:29:16;;;;;;;18.52;2.42;;;6.80;99.90;;;;;;5027735;28;20054;-70
2022/02/22 08:31:42;;;;;;;11.63;2.65;;;7.00;99.90;;;;;;5027624;28;20063;-71
2022/02/22 08:34:08;;;;;;;18.35;3.58;;;7.20;99.90;;;;;;5031678;28;20029;-71
2022/02/22 08:36:34;;;;;;;19.00;2.90;;;7.40;99.90;;;;;;5034813;28;20141;-71
2022/02/22 08:39:00;;;;;;;18.48;3.58;;;7.60;99.90;;;;;;5037920;28;20036;-70
2022/02/22 08:41:32;;;;;;;12.18;2.75;;;7.60;99.90;;;;;;5045303;28;20026;-71
2022/02/22 08:43:58;;;;;;;15.52;2.97;;;7.80;99.90;;;;;;5046058;28;20025;-71
2022/02/22 08:46:24;;;;;;;24.13;3.75;;;7.70;99.90;;;;;;5029486;28;20026;-70
2022/02/22 08:48:50;;;;;;;21.38;3.08;;;7.60;99.90;;;;;;5027404;28;20064;-70
2022/02/22 08:51:16;;;;;;;26.23;4.28;;;7.60;99.90;;;;;;5027434;28;20085;-71
2022/02/22 08:53:42;;;;;;;14.10;1.83;;;7.50;99.90;;;;;;5027694;28;20022;-71
2022/02/22 08:56:09;;;;;;;10.00;2.80;;;7.40;99.90;;;;;;5027767;28;20034;-69
2022/02/22 08:58:35;;;;;;;22.52;3.15;;;7.30;99.90;;;;;;5027289;28;20030;-70
2022/02/22 09:01:00;;;;;;;9.90;2.10;;;7.40;99.90;;;;;;5031503;28;20032;-69
2022/02/22 09:03:28;;;;;;;24.60;3.42;;;7.40;99.90;;;;;;5036122;28;20033;-72
2022/02/22 09:05:54;;;;;;;14.38;2.50;;;7.50;99.90;;;;;;5025125;28;20036;-71
2022/02/22 09:08:22;;;;;;;3.33;1.38;;;7.50;99.90;;;;;;5039142;28;20386;-73
2022/02/22 09:10:49;;;;;;;14.55;2.47;;;7.50;99.90;;;;;;5056172;28;20014;-71
2022/02/22 09:13:15;;;;;;;11.35;2.35;;;7.50;99.90;;;;;;5030387;28;21181;-70
2022/02/22 09:15:41;;;;;;;15.48;3.15;;;7.50;99.90;;;;;;5026395;28;20052;-71
2022/02/22 09:18:06;;;;;;;11.02;3.88;;;7.50;99.90;;;;;;5034293;28;20030;-73
2022/02/22 09:20:32;;;;;;;6.10;2.33;;;7.70;99.90;;;;;;5032582;28;20030;-71
2022/02/22 09:23:06;;;;;;;9.10;2.13;;;7.80;99.90;;;;;;5036602;28;20505;-71
2022/02/22 09:25:43;;;;;;;7.25;2.70;;;8.00;99.90;;;;;;5031956;28;20064;-70
2022/02/22 09:28:10;;;;;;;18.60;2.05;;;8.00;99.90;;;;;;5035946;28;20051;-71
2022/02/22 09:30:36;;;;;;;12.40;2.85;;;8.00;99.90;;;;;;5032789;28;20116;-71
2022/02/22 09:33:04;;;;;;;9.60;2.95;;;7.90;99.90;;;;;;5036153;28;20101;-72
2022/02/22 09:35:30;;;;;;;16.60;3.13;;;7.80;99.90;;;;;;5031961;28;20047;-69
2022/02/22 09:37:57;;;;;;;14.32;2.45;;;7.90;99.90;;;;;;5037542;28;20473;-71
2022/02/22 09:40:24;;;;;;;10.35;2.35;;;8.20;99.90;;;;;;5030385;28;20026;-72
2022/02/22 09:42:50;;;;;;;17.90;2.83;;;8.20;99.90;;;;;;5026132;28;20036;-69
2022/02/22 09:45:16;;;;;;;6.32;2.25;;;8.30;99.90;;;;;;5025341;28;20026;-69
2022/02/22 09:47:44;;;;;;;19.05;3.00;;;8.50;99.90;;;;;;5026251;28;20437;-71
2022/02/22 09:50:11;;;;;;;11.15;2.80;;;8.50;99.90;;;;;;5025826;28;20046;-71
2022/02/22 09:52:37;;;;;;;20.77;3.38;;;8.70;99.90;;;;;;5026229;28;20037;-72
2022/02/22 09:55:04;;;;;;;10.43;1.73;;;8.60;99.90;;;;;;5028628;28;20030;-73
2022/02/22 09:57:30;;;;;;;8.50;2.55;;;8.60;99.90;;;;;;5032584;28;20029;-69
2022/02/22 10:00:00;;;;;;;15.05;1.85;;;8.50;99.90;;;;;;5043477;28;20030;-69
2022/02/22 10:02:36;;;;;;;8.02;1.67;;;8.40;99.90;;;;;;5039309;28;20025;-70
2022/02/22 10:05:21;;;;;;;11.00;2.47;;;8.50;99.90;;;;;;5031773;28;20026;-70
2022/02/22 10:08:06;;;;;;;14.68;2.10;;;8.60;99.90;;;;;;5024031;28;20034;-71
2022/02/22 10:10:37;;;;;;;16.65;1.98;;;8.70;99.90;;;;;;5025180;28;20057;-69
2022/02/22 10:13:04;;;;;;;15.88;1.67;;;8.90;99.90;;;;;;5028834;28;20061;-71
2022/02/22 10:15:39;;;;;;;10.20;2.33;;;8.80;99.90;;;;;;5042051;28;20022;-69
2022/02/22 10:18:08;;;;;;;13.05;2.40;;;8.70;99.90;;;;;;5041014;28;20033;-72
2022/02/22 10:20:36;;;;;;;9.60;2.10;;;8.60;99.90;;;;;;5029074;28;20044;-69
2022/02/22 10:23:02;;;;;;;11.30;2.25;;;8.60;99.90;;;;;;5030522;28;20037;-71
2022/02/22 10:25:28;;;;;;;19.02;2.80;;;8.60;99.90;;;;;;5028250;28;20050;-70
2022/02/22 10:27:59;;;;;;;19.88;1.80;;;8.60;99.90;;;;;;5024838;28;20037;-72
2022/02/22 10:30:40;;;;;;;11.93;3.15;;;8.60;99.90;;;;;;5028163;28;20101;-73
2022/02/22 10:33:29;;;;;;;13.55;2.47;;;8.70;99.90;;;;;;5028233;28;20046;-72
2022/02/22 10:36:04;;;;;;;20.73;2.63;;;8.80;99.90;;;;;;5029025;28;20040;-70
2022/02/22 10:38:36;;;;;;;24.50;1.88;;;8.80;99.90;;;;;;5036242;28;20097;-71
2022/02/22 10:41:16;;;;;;;10.98;2.83;;;8.90;99.90;;;;;;5030204;28;20042;-71
2022/02/22 10:43:54;;;;;;;4.97;1.75;;;8.90;99.90;;;;;;5042110;28;20068;-72
2022/02/22 10:46:27;;;;;;;11.95;1.23;;;8.80;99.90;;;;;;5030553;28;20394;-72
2022/02/22 10:49:15;;;;;;;9.32;2.22;;;8.70;99.90;;;;;;5031152;28;20049;-71
2022/02/22 10:51:43;;;;;;;10.80;2.95;;;8.60;99.90;;;;;;5029073;28;20508;-71
2022/02/22 10:54:20;;;;;;;6.00;1.73;;;8.50;99.90;;;;;;5031629;28;20029;-71
2022/02/22 10:56:46;;;;;;;15.73;2.22;;;8.50;99.90;;;;;;5034984;28;20040;-71
2022/02/22 10:59:12;;;;;;;3.53;1.20;;;8.50;99.90;;;;;;5025097;28;20030;-72
2022/02/22 11:01:38;;;;;;;15.35;1.30;;;8.40;99.90;;;;;;5031400;28;20093;-71
2022/02/22 11:04:06;;;;;;;6.15;1.48;;;8.40;99.90;;;;;;5024330;28;20114;-72
2022/02/22 11:06:32;;;;;;;20.88;2.97;;;8.40;99.90;;;;;;5025466;28;20327;-71
2022/02/22 11:08:58;;;;;;;17.00;2.25;;;8.40;99.90;;;;;;5023837;28;20042;-73
2022/02/22 11:11:27;;;;;;;14.70;1.92;;;8.40;99.90;;;;;;5024588;28;20148;-71
2022/02/22 11:14:17;;;;;;;14.18;2.17;;;8.30;99.90;;;;;;5023548;28;20022;-72
2022/02/22 11:16:47;;;;;;;9.60;2.25;;;8.30;99.90;;;;;;5024752;28;20121;-70
2022/02/22 11:19:19;;;;;;;18.33;2.40;;;8.30;99.90;;;;;;5043219;28;20025;-72
2022/02/22 11:21:47;;;;;;;20.73;2.85;;;8.30;99.90;;;;;;5041701;28;20125;-72
2022/02/22 11:24:14;;;;;;;17.75;1.63;;;8.20;99.90;;;;;;5039533;28;20103;-70
2022/02/22 11:26:48;;;;;;;18.20;2.30;;;8.20;99.90;;;;;;5040797;28;20482;-72
2022/02/22 11:29:19;;;;;;;;;;;8.10;99.90;;;;;;5042543;28;20076;-71
2022/02/22 11:32:15;;;;;;;18.15;1.95;;;8.10;99.90;;;;;;5043509;28;20344;-70
2022/02/22 11:34:42;;;;;;;16.08;2.15;;;8.10;99.90;;;;;;5023578;28;20035;-71
2022/02/22 11:37:11;;;;;;;10.10;1.77;;;8.00;99.90;;;;;;5025725;28;20111;-73
2022/02/22 11:39:51;;;;;;;17.92;2.50;;;8.00;99.90;;;;;;5026439;28;20026;-72
2022/02/22 11:42:23;;;;;;;9.48;2.28;;;8.00;99.90;;;;;;5034018;28;20044;-70
2022/02/22 11:45:09;;;;;;;7.45;2.65;;;8.00;99.90;;;;;;5040083;28;20116;-71
2022/02/22 11:47:38;;;;;;;18.00;2.97;;;8.00;99.90;;;;;;5025397;28;20042;-72
2022/02/22 11:50:17;;;;;;;3.88;1.90;;;8.00;99.90;;;;;;5023472;28;20045;-70
2022/02/22 11:52:47;;;;;;;12.57;2.50;;;8.10;99.90;;;;;;5023365;28;20129;-73
2022/02/22 11:55:17;;;;;;;12.48;2.55;;;8.00;99.90;;;;;;5024084;28;20136;-71
2022/02/22 11:57:45;;;;;;;15.35;3.08;;;8.10;99.90;;;;;;5024307;28;20532;-72
2022/02/22 12:00:11;;;;;;;20.00;1.85;;;8.00;99.90;;;;;;5026269;28;20097;-72
2022/02/22 12:02:41;;;;;;;5.40;1.30;;;8.10;99.90;;;;;;5028079;28;20029;-69
2022/02/22 12:05:38;;;;;;;11.60;1.58;;;8.10;99.90;;;;;;5039202;28;20030;-70
2022/02/22 12:08:20;;;;;;;6.25;1.58;;;8.00;99.90;;;;;;5026070;28;20080;-71
2022/02/22 12:10:53;;;;;;;7.43;1.30;;;8.00;99.90;;;;;;5027329;28;20041;-70
2022/02/22 12:13:21;;;;;;;7.50;1.98;;;8.10;99.90;;;;;;5033543;28;20033;-71
2022/02/22 12:15:47;;;;;;;14.98;2.17;;;8.10;99.90;;;;;;5025875;28;20085;-70
2022/02/22 12:18:25;;;;;;;3.83;1.27;;;8.10;99.90;;;;;;5026225;28;20410;-70
2022/02/22 12:20:55;;;;;;;16.70;2.42;;;8.00;99.90;;;;;;5024758;28;20026;-71
2022/02/22 12:27:30;;;;;;;10.02;2.08;;;8.00;99.90;;;;;;5039655;28;20055;-75
2022/02/22 12:29:59;;;;;;;4.88;1.63;;;8.10;99.90;;;;;;5035075;28;20049;-73
2022/02/22 12:32:35;;;;;;;20.15;2.55;;;8.10;99.90;;;;;;5023940;28;20049;-70
2022/02/22 12:35:06;;;;;;;3.20;1.27;;;8.20;99.90;;;;;;5045857;28;20053;-71
2022/02/22 12:37:44;;;;;;;19.38;2.83;;;8.20;99.90;;;;;;5042949;28;20080;-69
2022/02/22 12:40:12;;;;;;;6.68;1.65;;;8.10;99.90;;;;;;5027869;28;20121;-70
2022/02/22 12:42:37;;;;;;;4.80;1.40;;;8.10;99.90;;;;;;5046001;28;20026;-71
2022/02/22 12:45:14;;;;;;;9.63;1.80;;;8.10;99.90;;;;;;5044068;28;20057;-70
2022/02/22 12:47:40;;;;;;;25.10;3.60;;;8.10;99.90;;;;;;5032870;28;20034;-70
2022/02/22 12:50:06;;;;;;;12.65;1.88;;;8.10;99.90;;;;;;5035281;28;20169;-72
2022/02/22 12:52:32;;;;;;;10.02;2.50;;;8.00;99.90;;;;;;5010785;28;20025;-70
2022/02/22 12:55:08;;;;;;;6.60;1.40;;;8.10;99.90;;;;;;5044835;28;20449;-72
2022/02/22 12:57:34;;;;;;;5.43;2.15;;;8.10;99.90;;;;;;5018227;28;20042;-69